createdAt,value
2018-04-25T00:02:17.723Z,64.40
2018-04-25T00:04:45.955Z,65.00
2018-04-25T00:07:14.188Z,65.40
2018-04-25T00:09:42.399Z,65.20
2018-04-25T00:12:11.481Z,65.60
2018-04-25T00:14:39.698Z,65.60
2018-04-25T00:17:07.915Z,65.90
2018-04-25T00:19:36.147Z,66.50
2018-04-25T00:22:04.401Z,66.50
2018-04-25T00:24:32.621Z,66.50
2018-04-25T00:27:00.856Z,67.10
2018-04-25T00:29:29.077Z,67.50
2018-04-25T00:31:57.304Z,67.80
2018-04-25T00:34:25.557Z,68.10
2018-04-25T00:36:53.752Z,68.40
2018-04-25T00:39:22.008Z,68.50
2018-04-25T00:41:50.246Z,68.30
2018-04-25T00:44:18.465Z,68.30
2018-04-25T00:46:46.692Z,68.40
2018-04-25T00:49:14.924Z,68.50
2018-04-25T00:51:43.151Z,68.80
2018-04-25T00:54:11.365Z,69.20
2018-04-25T00:56:39.604Z,69.60
2018-04-25T00:59:07.824Z,69.20
2018-04-25T01:01:36.023Z,69.50
2018-04-25T01:04:04.274Z,70.00
2018-04-25T01:06:32.499Z,70.40
2018-04-25T01:09:00.725Z,70.40
2018-04-25T01:11:28.941Z,70.60
2018-04-25T01:13:57.273Z,71.00
2018-04-25T01:16:25.480Z,69.90
2018-04-25T01:18:53.709Z,68.90
2018-04-25T01:21:21.930Z,68.70
2018-04-25T01:23:50.180Z,68.50
2018-04-25T01:26:18.447Z,68.60
2018-04-25T01:28:53.291Z,69.60
2018-04-25T01:31:27.584Z,70.50
2018-04-25T01:36:59.673Z,70.60
2018-04-25T01:39:32.683Z,70.70
2018-04-25T01:42:00.916Z,70.70
2018-04-25T01:44:39.808Z,71.70
2018-04-25T01:47:10.917Z,71.70
2018-04-25T01:52:49.084Z,71.90
2018-04-25T01:55:29.190Z,72.00
2018-04-25T01:58:09.249Z,71.70
2018-04-25T02:00:49.324Z,72.50
2018-04-25T02:03:17.567Z,73.90
2018-04-25T02:05:45.821Z,73.70
2018-04-25T02:08:14.055Z,74.10
2018-04-25T02:10:42.284Z,74.00
2018-04-25T02:13:10.554Z,74.50
2018-04-25T02:15:38.799Z,74.90
2018-04-25T02:18:07.821Z,74.10
2018-04-25T02:20:36.058Z,73.30
2018-04-25T02:23:04.631Z,74.00
2018-04-25T02:25:32.951Z,74.40
2018-04-25T02:28:01.157Z,74.50
2018-04-25T02:30:29.401Z,73.80
2018-04-25T02:32:57.613Z,73.20
2018-04-25T02:35:25.849Z,72.80
2018-04-25T02:37:54.826Z,73.50
2018-04-25T02:40:23.817Z,73.20
2018-04-25T02:42:52.849Z,73.20
2018-04-25T02:45:21.093Z,73.10
2018-04-25T02:47:50.093Z,73.20
2018-04-25T02:50:18.373Z,73.20
2018-04-25T02:52:46.587Z,73.10
2018-04-25T02:55:14.825Z,73.30
2018-04-25T02:57:43.032Z,73.50
2018-04-25T03:00:11.633Z,73.30
2018-04-25T03:02:39.873Z,74.00
2018-04-25T03:05:08.109Z,74.20
2018-04-25T03:07:37.125Z,72.90
2018-04-25T03:10:05.765Z,72.90
2018-04-25T03:12:33.997Z,73.50
2018-04-25T03:15:02.233Z,73.30
2018-04-25T03:17:31.225Z,74.50
2018-04-25T03:19:59.446Z,74.50
2018-04-25T03:22:27.656Z,74.30
2018-04-25T03:24:55.866Z,74.20
2018-04-25T03:27:24.646Z,74.00
2018-04-25T03:29:53.616Z,74.20
2018-04-25T03:32:22.046Z,74.00
2018-04-25T03:34:50.241Z,74.90
2018-04-25T03:37:18.475Z,74.70
2018-04-25T03:39:47.272Z,74.10
2018-04-25T03:42:15.496Z,75.00
2018-04-25T03:44:45.260Z,75.30
2018-04-25T03:47:13.496Z,75.30
2018-04-25T03:49:42.701Z,74.90
2018-04-25T03:52:11.708Z,75.90
2018-04-25T03:54:40.757Z,76.10
2018-04-25T03:57:08.990Z,75.90
2018-04-25T03:59:37.335Z,76.10
2018-04-25T04:02:06.205Z,76.20
2018-04-25T04:04:35.154Z,76.20
2018-04-25T04:07:03.376Z,76.00
2018-04-25T04:09:31.595Z,76.40
2018-04-25T04:11:59.860Z,76.00
2018-04-25T04:14:28.832Z,75.50
2018-04-25T04:16:57.856Z,75.50
2018-04-25T04:19:26.083Z,75.40
2018-04-25T04:21:54.316Z,75.90
2018-04-25T04:24:22.548Z,76.00
2018-04-25T04:26:50.846Z,75.60
2018-04-25T04:29:19.054Z,75.60
2018-04-25T04:31:47.285Z,75.50
2018-04-25T04:34:16.266Z,75.40
2018-04-25T04:36:45.260Z,75.30
2018-04-25T04:39:14.240Z,75.10
2018-04-25T04:41:42.469Z,75.10
2018-04-25T04:44:10.679Z,75.30
2018-04-25T04:46:38.901Z,75.30
2018-04-25T04:49:07.121Z,75.70
2018-04-25T04:51:35.436Z,75.50
2018-04-25T04:54:04.441Z,75.40
2018-04-25T04:56:32.665Z,75.40
2018-04-25T04:59:00.869Z,75.00
2018-04-25T05:01:29.860Z,74.50
2018-04-25T05:03:58.870Z,74.20
2018-04-25T05:06:27.173Z,74.20
2018-04-25T05:08:55.424Z,73.90
2018-04-25T05:11:24.680Z,74.00
2018-04-25T05:13:52.997Z,73.60
2018-04-25T05:16:21.275Z,73.50
2018-04-25T05:18:49.510Z,73.70
2018-04-25T05:21:17.718Z,73.40
2018-04-25T05:23:45.969Z,73.20
2018-04-25T05:26:14.187Z,72.80
2018-04-25T05:28:42.414Z,73.00
2018-04-25T05:31:10.724Z,72.70
2018-04-25T05:33:38.950Z,72.60
2018-04-25T05:36:07.166Z,72.60
2018-04-25T05:38:36.229Z,72.00
2018-04-25T05:41:04.387Z,71.90
2018-04-25T05:43:32.605Z,71.60
2018-04-25T05:46:01.626Z,71.30
2018-04-25T05:48:30.577Z,70.90
2018-04-25T05:50:58.873Z,71.70
2018-04-25T05:53:27.090Z,70.60
2018-04-25T05:55:55.338Z,70.40
2018-04-25T05:58:23.579Z,70.00
2018-04-25T06:00:52.551Z,69.40
2018-04-25T06:03:21.209Z,69.30
2018-04-25T06:05:49.444Z,68.90
2018-04-25T06:08:18.436Z,68.80
2018-04-25T06:10:46.636Z,68.80
2018-04-25T06:13:14.872Z,68.10
2018-04-25T06:15:43.872Z,67.90
2018-04-25T06:18:12.856Z,68.00
2018-04-25T06:20:41.828Z,67.20
2018-04-25T06:23:10.337Z,67.10
2018-04-25T06:25:39.315Z,66.90
2018-04-25T06:28:07.547Z,66.80
2018-04-25T06:30:35.744Z,66.80
2018-04-25T06:33:04.064Z,66.30
2018-04-25T06:35:33.045Z,66.30
2018-04-25T06:38:02.048Z,65.90
2018-04-25T06:40:30.325Z,65.80
2018-04-25T06:42:58.541Z,65.40
2018-04-25T06:45:26.754Z,65.80
2018-04-25T06:47:55.062Z,65.50
2018-04-25T06:50:23.248Z,65.50
2018-04-25T06:52:51.534Z,65.50
2018-04-25T06:55:19.736Z,64.70
2018-04-25T06:57:48.074Z,64.20
2018-04-25T07:00:16.296Z,63.60
2018-04-25T07:02:44.512Z,63.60
2018-04-25T07:05:12.801Z,63.20
2018-04-25T07:07:41.009Z,62.60
2018-04-25T07:10:09.483Z,61.90
2018-04-25T07:12:37.703Z,61.00
2018-04-25T07:15:05.934Z,60.60
2018-04-25T07:17:34.370Z,60.70
2018-04-25T07:20:03.731Z,60.90
2018-04-25T07:22:32.713Z,61.00
2018-04-25T07:25:00.953Z,61.00
2018-04-25T07:27:29.170Z,60.70
2018-04-25T07:29:57.481Z,60.10
2018-04-25T07:32:25.770Z,60.10
2018-04-25T07:34:54.026Z,60.20
2018-04-25T07:37:22.248Z,59.80
2018-04-25T07:39:50.476Z,59.80
2018-04-25T07:42:18.686Z,59.50
2018-04-25T07:44:46.923Z,58.90
2018-04-25T07:47:15.913Z,57.50
2018-04-25T07:49:44.140Z,57.40
2018-04-25T07:52:12.369Z,56.70
2018-04-25T07:54:41.358Z,55.50
2018-04-25T07:57:09.640Z,55.40
2018-04-25T07:59:37.849Z,54.60
2018-04-25T08:02:06.523Z,52.10
2018-04-25T08:04:34.796Z,51.30
2018-04-25T08:07:03.041Z,51.20
2018-04-25T08:09:31.274Z,51.20
2018-04-25T08:11:59.483Z,51.30
2018-04-25T08:14:40.329Z,51.00
2018-04-25T08:17:20.462Z,50.90
2018-04-25T08:20:00.534Z,52.50
2018-04-25T08:22:28.744Z,52.40
2018-04-25T08:24:56.976Z,51.90
2018-04-25T08:27:25.205Z,50.90
2018-04-25T08:29:53.538Z,50.00
2018-04-25T08:32:21.753Z,50.50
2018-04-25T08:34:49.985Z,51.20
2018-04-25T08:37:18.207Z,51.20
2018-04-25T08:39:46.457Z,49.50
2018-04-25T08:42:15.425Z,49.90
2018-04-25T08:44:43.891Z,49.90
2018-04-25T08:47:12.023Z,48.90
2018-04-25T08:49:40.263Z,48.90
2018-04-25T08:52:09.229Z,48.70
2018-04-25T08:54:38.464Z,48.40
2018-04-25T08:57:07.452Z,47.90
2018-04-25T08:59:36.438Z,48.60
2018-04-25T09:02:04.665Z,48.60
2018-04-25T09:04:33.322Z,48.70
2018-04-25T09:07:01.555Z,49.10
2018-04-25T09:09:29.765Z,49.00
2018-04-25T09:11:57.984Z,48.20
2018-04-25T09:14:26.196Z,48.10
2018-04-25T09:16:55.225Z,49.00
2018-04-25T09:19:24.163Z,49.30
2018-04-25T09:21:52.553Z,49.30
2018-04-25T09:24:22.999Z,49.60
2018-04-25T09:26:51.984Z,49.60
2018-04-25T09:29:20.988Z,50.30
2018-04-25T09:31:49.309Z,50.30
2018-04-25T09:34:17.566Z,50.40
2018-04-25T09:36:45.810Z,50.20
2018-04-25T09:39:14.784Z,50.60
2018-04-25T09:41:43.801Z,50.70
2018-04-25T09:44:12.076Z,50.70
2018-04-25T09:46:40.361Z,50.60
2018-04-25T09:49:08.648Z,50.90
2018-04-25T09:51:36.893Z,51.50
2018-04-25T09:54:05.860Z,51.50
2018-04-25T09:56:34.098Z,51.50
2018-04-25T09:59:02.368Z,52.70
2018-04-25T10:01:31.376Z,53.50
2018-04-25T10:03:59.651Z,52.20
2018-04-25T10:06:28.590Z,52.80
2018-04-25T10:08:57.618Z,52.90
2018-04-25T10:11:26.575Z,52.80
2018-04-25T10:13:55.576Z,52.20
2018-04-25T10:16:23.857Z,52.20
2018-04-25T10:18:52.056Z,52.10
2018-04-25T10:21:20.280Z,52.20
2018-04-25T10:23:48.496Z,52.80
2018-04-25T10:26:16.749Z,52.20
2018-04-25T10:28:45.725Z,52.00
2018-04-25T10:31:13.994Z,52.00
2018-04-25T10:33:42.198Z,52.70
2018-04-25T10:36:10.486Z,52.30
2018-04-25T10:38:38.712Z,52.20
2018-04-25T10:41:06.923Z,51.10
2018-04-25T10:43:35.142Z,51.30
2018-04-25T10:46:03.352Z,51.60
2018-04-25T10:48:32.520Z,51.40
2018-04-25T10:51:00.716Z,51.40
2018-04-25T10:53:29.010Z,51.10
2018-04-25T10:55:58.072Z,50.70
2018-04-25T10:58:26.286Z,50.70
2018-04-25T11:00:54.486Z,51.10
2018-04-25T11:03:23.397Z,51.50
2018-04-25T11:05:51.626Z,51.10
2018-04-25T11:08:19.880Z,51.20
2018-04-25T11:10:48.065Z,51.40
2018-04-25T11:13:17.049Z,51.10
2018-04-25T11:15:46.048Z,50.60
2018-04-25T11:18:15.045Z,50.00
2018-04-25T11:20:43.316Z,50.00
2018-04-25T11:23:12.605Z,48.90
2018-04-25T11:25:41.618Z,49.70
2018-04-25T11:28:09.844Z,49.10
2018-04-25T11:30:38.060Z,47.80
2018-04-25T11:33:07.037Z,48.70
2018-04-25T11:35:36.013Z,49.30
2018-04-25T11:38:04.248Z,49.30
2018-04-25T11:40:32.464Z,49.80
2018-04-25T11:43:00.697Z,50.60
2018-04-25T11:45:28.928Z,51.00
2018-04-25T11:47:57.144Z,51.40
2018-04-25T11:50:25.368Z,51.50
2018-04-25T11:52:53.606Z,52.00
2018-04-25T11:55:21.940Z,52.60
2018-04-25T11:57:50.166Z,53.50
2018-04-25T12:00:18.373Z,53.90
2018-04-25T12:02:47.448Z,54.60
2018-04-25T12:05:16.360Z,54.70
2018-04-25T12:07:45.368Z,55.10
2018-04-25T12:10:13.695Z,55.10
2018-04-25T12:12:41.889Z,55.30
2018-04-25T12:15:10.188Z,55.70
2018-04-25T12:17:39.185Z,56.50
2018-04-25T12:20:09.365Z,57.80
2018-04-25T12:22:38.400Z,57.20
2018-04-25T12:25:07.387Z,57.00
2018-04-25T12:27:36.388Z,57.20
2018-04-25T12:30:04.953Z,57.20
2018-04-25T12:32:33.167Z,57.20
2018-04-25T12:35:01.376Z,57.90
2018-04-25T12:37:29.606Z,58.70
2018-04-25T12:39:57.825Z,59.40
2018-04-25T12:42:26.141Z,59.30
2018-04-25T12:44:54.376Z,59.30
2018-04-25T12:47:22.609Z,59.40
2018-04-25T12:49:50.851Z,59.20
2018-04-25T12:52:19.828Z,58.30
2018-04-25T12:54:48.057Z,58.30
2018-04-25T12:57:16.290Z,58.40
2018-04-25T12:59:44.520Z,58.10
2018-04-25T13:02:12.721Z,57.90
2018-04-25T13:04:40.947Z,57.20
2018-04-25T13:07:09.152Z,57.50
2018-04-25T13:09:37.379Z,57.10
2018-04-25T13:12:05.605Z,57.50
2018-04-25T13:14:33.900Z,56.40
2018-04-25T13:17:02.067Z,56.30
2018-04-25T13:19:30.378Z,57.40
2018-04-25T13:21:58.649Z,60.40
2018-04-25T13:24:27.650Z,69.10
2018-04-25T13:26:56.624Z,71.40
2018-04-25T13:29:25.613Z,72.50
2018-04-25T13:31:54.597Z,71.30
2018-04-25T13:34:22.806Z,71.40
2018-04-25T13:36:51.021Z,70.50
2018-04-25T13:39:19.257Z,70.30
2018-04-25T13:41:47.493Z,69.00
2018-04-25T13:44:15.753Z,67.10
2018-04-25T13:46:44.002Z,65.60
2018-04-25T13:49:12.948Z,62.50
2018-04-25T13:51:41.935Z,61.40
2018-04-25T13:54:10.190Z,61.40
2018-04-25T13:56:38.425Z,61.20
2018-04-25T13:59:06.658Z,59.90
2018-04-25T14:01:36.397Z,59.70
2018-04-25T14:04:04.667Z,59.70
2018-04-25T14:06:32.872Z,58.70
2018-04-25T14:09:01.122Z,58.70
2018-04-25T14:11:29.337Z,58.60
2018-04-25T14:13:57.567Z,57.00
2018-04-25T14:16:25.782Z,55.90
2018-04-25T14:18:54.008Z,55.20
2018-04-25T14:21:22.977Z,54.20
2018-04-25T14:23:51.204Z,54.20
2018-04-25T14:26:19.443Z,54.30
2018-04-25T14:28:48.454Z,53.40
2018-04-25T14:31:16.726Z,53.40
2018-04-25T14:33:44.948Z,52.80
2018-04-25T14:36:13.153Z,53.40
2018-04-25T14:38:43.080Z,51.70
2018-04-25T14:41:12.060Z,50.50
2018-04-25T14:43:40.275Z,50.40
2018-04-25T14:46:08.497Z,48.00
2018-04-25T14:48:36.797Z,42.00
2018-04-25T14:51:05.808Z,37.00
2018-04-25T14:53:34.005Z,37.00
2018-04-25T14:56:02.228Z,35.60
2018-04-25T14:58:30.435Z,33.50
2018-04-25T15:00:58.667Z,32.30
2018-04-25T15:03:26.875Z,31.00
2018-04-25T15:05:55.105Z,31.40
2018-04-25T15:08:23.313Z,30.60
2018-04-25T15:10:51.704Z,29.40
2018-04-25T15:13:19.910Z,30.00
2018-04-25T15:15:48.144Z,28.70
2018-04-25T15:18:16.386Z,28.40
2018-04-25T15:20:44.678Z,31.40
2018-04-25T15:23:12.962Z,33.10
2018-04-25T15:25:41.952Z,42.00
2018-04-25T15:28:10.943Z,42.30
2018-04-25T15:30:39.947Z,45.10
2018-04-25T15:33:08.228Z,45.00
2018-04-25T15:35:36.471Z,45.50
2018-04-25T15:38:04.673Z,45.10
2018-04-25T15:40:32.952Z,45.80
2018-04-25T15:43:01.277Z,44.50
2018-04-25T15:45:29.477Z,44.80
2018-04-25T15:47:58.525Z,45.60
2018-04-25T15:50:26.670Z,45.50
2018-04-25T15:52:54.940Z,45.10
2018-04-25T15:55:23.168Z,44.80
2018-04-25T15:57:51.552Z,45.10
2018-04-25T16:00:19.772Z,45.00
2018-04-25T16:02:47.977Z,45.60
2018-04-25T16:05:16.201Z,46.00
2018-04-25T16:07:45.261Z,46.60
2018-04-25T16:10:13.466Z,46.50
2018-04-25T16:12:42.514Z,46.60
2018-04-25T16:15:10.740Z,46.60
2018-04-25T16:17:39.732Z,47.10
2018-04-25T16:20:09.095Z,47.70
2018-04-25T16:22:37.413Z,47.70
2018-04-25T16:25:05.668Z,47.30
2018-04-25T16:27:33.873Z,48.40
2018-04-25T16:30:02.403Z,49.60
2018-04-25T16:32:30.629Z,50.80
2018-04-25T16:34:58.859Z,51.10
2018-04-25T16:37:27.074Z,51.60
2018-04-25T16:39:55.282Z,51.80
2018-04-25T16:42:23.520Z,51.90
2018-04-25T16:44:51.812Z,52.10
2018-04-25T16:47:20.070Z,53.00
2018-04-25T16:49:49.077Z,53.40
2018-04-25T16:52:17.330Z,53.40
2018-04-25T16:54:46.341Z,54.10
2018-04-25T16:57:14.672Z,54.00
2018-04-25T16:59:42.835Z,53.90
2018-04-25T17:02:11.057Z,53.70
2018-04-25T17:04:39.293Z,54.30
2018-04-25T17:07:07.599Z,54.90
2018-04-25T17:09:35.842Z,54.30
2018-04-25T17:12:04.016Z,54.90
2018-04-25T17:14:32.240Z,53.70
2018-04-25T17:17:00.469Z,53.90
2018-04-25T17:19:28.684Z,54.30
2018-04-25T17:21:56.961Z,53.50
2018-04-25T17:24:25.238Z,52.20
2018-04-25T17:26:53.516Z,53.10
2018-04-25T17:29:21.779Z,54.60
2018-04-25T17:31:50.029Z,57.20
2018-04-25T17:34:18.345Z,58.60
2018-04-25T17:36:46.644Z,60.70
2018-04-25T17:39:14.781Z,62.90
2018-04-25T17:41:43.001Z,63.20
2018-04-25T17:44:11.208Z,64.00
2018-04-25T17:46:40.222Z,64.60
2018-04-25T17:49:08.450Z,64.50
2018-04-25T17:51:36.676Z,67.60
2018-04-25T17:54:04.896Z,69.20
2018-04-25T17:56:33.124Z,69.30
2018-04-25T17:59:01.341Z,68.90
2018-04-25T18:01:29.587Z,71.00
2018-04-25T18:03:57.785Z,71.60
2018-04-25T18:06:26.013Z,71.30
2018-04-25T18:08:54.213Z,70.90
2018-04-25T18:11:22.536Z,72.20
2018-04-25T18:13:50.698Z,72.00
2018-04-25T18:16:20.824Z,72.90
2018-04-25T18:18:49.965Z,71.40
2018-04-25T18:21:18.184Z,69.80
2018-04-25T18:23:46.399Z,70.30
2018-04-25T18:26:15.412Z,68.50
2018-04-25T18:28:43.680Z,68.50
2018-04-25T18:31:11.899Z,67.80
2018-04-25T18:33:40.169Z,68.50
2018-04-25T18:36:08.809Z,68.00
2018-04-25T18:38:37.140Z,69.20
2018-04-25T18:41:05.346Z,69.30
2018-04-25T18:43:34.464Z,68.40
2018-04-25T18:46:02.696Z,68.20
2018-04-25T18:48:31.017Z,68.50
2018-04-25T18:50:59.621Z,68.70
2018-04-25T18:53:27.830Z,68.70
2018-04-25T18:55:56.049Z,68.60
2018-04-25T18:58:24.264Z,68.40
2018-04-25T19:00:52.480Z,68.40
2018-04-25T19:03:23.558Z,68.90
2018-04-25T19:05:51.796Z,68.90
2018-04-25T19:08:20.794Z,71.00
2018-04-25T19:10:49.018Z,70.80
2018-04-25T19:13:17.229Z,71.30
2018-04-25T19:15:46.206Z,72.50
2018-04-25T19:18:14.444Z,72.40
2018-04-25T19:20:42.704Z,72.20
2018-04-25T19:23:11.317Z,72.60
2018-04-25T19:25:39.538Z,72.90
2018-04-25T19:28:07.763Z,75.40
2018-04-25T19:30:36.131Z,76.00
2018-04-25T19:33:04.363Z,76.10
2018-04-25T19:35:33.329Z,76.30
2018-04-25T19:38:04.668Z,76.30
2018-04-25T19:40:33.713Z,75.70
2018-04-25T19:43:01.947Z,75.70
2018-04-25T19:45:30.153Z,76.20
2018-04-25T19:47:58.423Z,76.10
2018-04-25T19:50:26.648Z,75.00
2018-04-25T19:52:54.972Z,75.00
2018-04-25T19:55:23.252Z,75.10
2018-04-25T19:57:51.475Z,75.10
2018-04-25T20:00:19.688Z,75.40
2018-04-25T20:02:48.674Z,74.90
2018-04-25T20:05:17.698Z,74.60
2018-04-25T20:07:45.921Z,74.60
2018-04-25T20:10:14.900Z,74.40
2018-04-25T20:12:43.240Z,74.40
2018-04-25T20:15:11.456Z,74.80
2018-04-25T20:17:40.502Z,73.70
2018-04-25T20:20:08.964Z,73.70
2018-04-25T20:22:37.133Z,73.30
2018-04-25T20:25:06.131Z,72.80
2018-04-25T20:27:35.136Z,73.10
2018-04-25T20:30:03.664Z,73.10
2018-04-25T20:32:31.972Z,73.40
2018-04-25T20:35:00.964Z,74.00
2018-04-25T20:37:29.961Z,73.20
2018-04-25T20:39:58.934Z,72.90
2018-04-25T20:42:27.146Z,72.90
2018-04-25T20:44:55.351Z,73.30
2018-04-25T20:47:23.589Z,72.90
2018-04-25T20:49:51.821Z,72.60
2018-04-25T20:52:20.075Z,72.40
2018-04-25T20:54:48.296Z,73.20
2018-04-25T20:57:17.290Z,74.90
2018-04-25T20:59:46.284Z,75.60
2018-04-25T21:02:15.307Z,75.30
2018-04-25T21:04:43.484Z,75.30
2018-04-25T21:07:11.705Z,76.40
2018-04-25T21:09:40.090Z,75.90
2018-04-25T21:12:09.127Z,75.20
2018-04-25T21:14:37.362Z,75.10
2018-04-25T21:17:06.458Z,76.60
2018-04-25T21:19:34.778Z,76.50
2018-04-25T21:22:03.075Z,78.10
2018-04-25T21:24:31.313Z,77.10
2018-04-25T21:26:59.526Z,77.80
2018-04-25T21:29:27.747Z,78.10
2018-04-25T21:32:00.743Z,76.20
2018-04-25T21:34:30.850Z,75.50
2018-04-25T21:36:59.137Z,75.40
2018-04-25T21:39:27.361Z,76.00
2018-04-25T21:41:55.561Z,74.50
2018-04-25T21:44:24.569Z,74.30
2018-04-25T21:46:53.578Z,75.00
2018-04-25T21:49:21.813Z,74.90
2018-04-25T21:51:50.034Z,75.10
2018-04-25T21:54:18.262Z,74.50
2018-04-25T21:56:46.453Z,74.80
2018-04-25T21:59:15.448Z,75.30
2018-04-25T22:01:44.403Z,75.20
2018-04-25T22:04:12.629Z,75.10
2018-04-25T22:06:40.853Z,75.40
2018-04-25T22:09:09.164Z,75.10
2018-04-25T22:11:38.153Z,74.50
2018-04-25T22:14:07.166Z,74.80
2018-04-25T22:16:35.387Z,74.70
2018-04-25T22:19:03.602Z,75.30
2018-04-25T22:21:32.579Z,75.60
2018-04-25T22:24:01.556Z,75.80
2018-04-25T22:26:29.845Z,75.60
2018-04-25T22:28:58.836Z,76.20
2018-04-25T22:31:27.843Z,76.00
2018-04-25T22:33:56.833Z,75.40
2018-04-25T22:36:25.806Z,76.00
2018-04-25T22:38:54.026Z,75.90
2018-04-25T22:41:22.236Z,75.80
2018-04-25T22:43:50.480Z,75.60
2018-04-25T22:46:18.689Z,75.80
2018-04-25T22:48:46.902Z,75.70
2018-04-25T22:51:15.125Z,75.70
2018-04-25T22:53:43.451Z,75.30
2018-04-25T22:56:12.428Z,74.90
2018-04-25T22:58:42.154Z,75.60
2018-04-25T23:01:10.431Z,75.50
2018-04-25T23:03:38.675Z,76.10
2018-04-25T23:06:06.907Z,75.60
2018-04-25T23:08:35.161Z,75.30
2018-04-25T23:11:03.393Z,74.60
2018-04-25T23:13:31.620Z,74.00
2018-04-25T23:15:59.887Z,74.00
2018-04-25T23:18:28.191Z,73.10
2018-04-25T23:20:56.432Z,74.40
2018-04-25T23:23:24.658Z,74.20
2018-04-25T23:25:52.896Z,73.70
2018-04-25T23:28:21.128Z,74.20
2018-04-25T23:30:49.360Z,74.00
2018-04-25T23:33:17.562Z,74.40
2018-04-25T23:35:45.776Z,74.50
2018-04-25T23:38:13.998Z,74.60
2018-04-25T23:40:42.226Z,74.10
2018-04-25T23:43:10.678Z,74.90
2018-04-25T23:45:40.406Z,73.70
2018-04-25T23:48:09.373Z,74.30
2018-04-25T23:50:37.593Z,74.20
2018-04-25T23:53:05.817Z,74.50
2018-04-25T23:55:34.116Z,74.50
2018-04-25T23:58:02.378Z,74.50
